createdAt,value
2023-05-01T00:01:46.897Z,93.13
2023-05-01T00:04:15.093Z,93.62
2023-05-01T00:06:43.487Z,94.63
2023-05-01T00:09:11.924Z,94.21
2023-05-01T00:11:39.907Z,93.89
2023-05-01T00:14:08.010Z,95.04
2023-05-01T00:16:36.695Z,99.08
2023-05-01T00:19:05.172Z,98.57
2023-05-01T00:21:33.209Z,98.58
2023-05-01T00:24:02.343Z,98.49
2023-05-01T00:26:31.641Z,97.85
2023-05-01T00:28:59.880Z,97.39
2023-05-01T00:31:27.898Z,97.01
2023-05-01T00:33:56.420Z,96.70
2023-05-01T00:36:24.546Z,96.74
2023-05-01T00:38:52.684Z,98.79
2023-05-01T00:41:21.370Z,99.31
2023-05-01T00:43:49.444Z,98.69
2023-05-01T00:46:19.291Z,98.34
2023-05-01T00:48:47.625Z,98.36
2023-05-01T00:51:15.966Z,98.68
2023-05-01T00:53:44.882Z,98.76
2023-05-01T00:56:14.351Z,99.40
2023-05-01T00:58:42.560Z,99.99
2023-05-01T01:01:10.768Z,100.00
2023-05-01T01:03:38.899Z,100.00
2023-05-01T01:06:17.381Z,100.00
2023-05-01T01:09:10.071Z,100.00
2023-05-01T01:11:58.743Z,100.00
2023-05-01T01:14:36.716Z,100.00
2023-05-01T01:17:27.074Z,100.00
2023-05-01T01:20:20.169Z,100.00
2023-05-01T01:23:01.581Z,100.00
2023-05-01T01:26:01.379Z,100.00
2023-05-01T01:29:00.729Z,100.00
2023-05-01T01:31:41.937Z,99.99
2023-05-01T01:34:13.119Z,99.99
2023-05-01T01:36:49.483Z,99.98
2023-05-01T01:39:42.426Z,99.99
2023-05-01T01:42:18.466Z,99.76
2023-05-01T01:44:56.679Z,99.67
2023-05-01T01:47:28.537Z,99.62
2023-05-01T01:49:58.801Z,99.73
2023-05-01T01:52:29.015Z,99.96
2023-05-01T01:55:09.904Z,99.99
2023-05-01T01:57:39.808Z,100.00
2023-05-01T02:00:28.837Z,100.00
2023-05-01T02:03:01.177Z,100.00
2023-05-01T02:05:32.004Z,100.00
2023-05-01T02:08:00.971Z,100.00
2023-05-01T02:10:30.141Z,100.00
2023-05-01T02:13:00.320Z,100.00
2023-05-01T02:15:30.463Z,100.00
2023-05-01T02:18:02.401Z,100.00
2023-05-01T02:20:31.055Z,100.00
2023-05-01T02:23:00.111Z,100.00
2023-05-01T02:25:33.750Z,100.00
2023-05-01T02:28:14.442Z,100.00
2023-05-01T02:30:42.399Z,100.00
2023-05-01T02:33:10.985Z,100.00
2023-05-01T02:35:44.047Z,100.00
2023-05-01T02:38:13.434Z,100.00
2023-05-01T02:40:47.295Z,100.00
2023-05-01T02:43:20.204Z,100.00
2023-05-01T02:45:51.670Z,100.00
2023-05-01T02:48:27.928Z,100.00
2023-05-01T02:50:57.355Z,100.00
2023-05-01T02:53:25.508Z,100.00
2023-05-01T02:55:57.203Z,100.00
2023-05-01T02:58:25.271Z,100.00
2023-05-01T03:00:53.370Z,100.00
2023-05-01T03:03:21.890Z,100.00
2023-05-01T03:05:49.994Z,100.00
2023-05-01T03:08:17.920Z,100.00
2023-05-01T03:10:45.980Z,100.00
2023-05-01T03:13:17.045Z,100.00
2023-05-01T03:15:45.228Z,100.00
2023-05-01T03:18:13.426Z,100.00
2023-05-01T03:20:51.366Z,99.88
2023-05-01T03:23:19.974Z,99.68
2023-05-01T03:25:48.063Z,99.36
2023-05-01T03:28:16.867Z,99.08
2023-05-01T03:30:45.009Z,98.76
2023-05-01T03:33:13.292Z,98.45
2023-05-01T03:35:41.512Z,98.03
2023-05-01T03:38:10.310Z,97.61
2023-05-01T03:41:10.873Z,97.23
2023-05-01T03:43:44.760Z,96.65
2023-05-01T03:46:21.960Z,95.54
2023-05-01T03:48:50.150Z,94.29
2023-05-01T03:51:18.766Z,92.21
2023-05-01T03:53:48.308Z,89.68
2023-05-01T03:56:16.479Z,87.75
2023-05-01T03:58:45.939Z,86.35
2023-05-01T04:01:15.374Z,85.36
2023-05-01T04:03:46.158Z,83.78
2023-05-01T04:06:14.507Z,82.20
2023-05-01T04:08:43.688Z,81.37
2023-05-01T04:11:12.892Z,79.04
2023-05-01T04:13:41.101Z,78.17
2023-05-01T04:16:09.874Z,78.04
2023-05-01T04:18:37.962Z,76.18
2023-05-01T04:21:05.990Z,73.90
2023-05-01T04:23:38.637Z,73.13
2023-05-01T04:26:06.752Z,72.76
2023-05-01T04:28:35.264Z,71.49
2023-05-01T04:31:05.200Z,69.95
2023-05-01T04:33:33.241Z,69.87
2023-05-01T04:36:01.413Z,69.17
2023-05-01T04:38:31.309Z,68.00
2023-05-01T04:41:00.125Z,67.03
2023-05-01T04:43:28.132Z,67.09
2023-05-01T04:45:56.586Z,66.36
2023-05-01T04:48:24.757Z,65.11
2023-05-01T04:50:52.953Z,64.22
2023-05-01T04:53:21.796Z,64.23
2023-05-01T04:55:50.461Z,64.00
2023-05-01T04:58:19.475Z,63.52
2023-05-01T05:00:50.533Z,62.87
2023-05-01T05:03:22.233Z,63.23
2023-05-01T05:05:50.548Z,63.27
2023-05-01T05:08:18.902Z,62.91
2023-05-01T05:10:58.174Z,62.66
2023-05-01T05:14:01.632Z,61.62
2023-05-01T05:16:30.999Z,61.18
2023-05-01T05:19:00.677Z,61.47
2023-05-01T05:21:29.296Z,61.51
2023-05-01T05:23:58.703Z,61.23
2023-05-01T05:26:28.424Z,61.20
2023-05-01T05:28:58.379Z,59.96
2023-05-01T05:31:26.380Z,59.41
2023-05-01T05:33:54.693Z,59.16
2023-05-01T05:36:27.791Z,57.95
2023-05-01T05:38:56.143Z,57.97
2023-05-01T05:41:24.755Z,57.45
2023-05-01T05:43:55.586Z,57.71
2023-05-01T05:46:26.517Z,57.83
2023-05-01T05:48:54.790Z,58.05
2023-05-01T05:51:24.645Z,58.42
2023-05-01T05:53:52.994Z,58.37
2023-05-01T05:56:26.348Z,58.53
2023-05-01T05:58:58.759Z,58.66
2023-05-01T06:01:28.047Z,58.33
2023-05-01T06:03:57.206Z,58.40
2023-05-01T06:06:27.759Z,59.15
2023-05-01T06:08:59.520Z,59.79
2023-05-01T06:11:27.874Z,61.21
2023-05-01T06:13:57.465Z,62.47
2023-05-01T06:16:26.101Z,63.57
2023-05-01T06:18:54.419Z,64.77
2023-05-01T06:21:22.949Z,65.95
2023-05-01T06:23:51.198Z,66.80
2023-05-01T06:26:35.894Z,67.77
2023-05-01T06:29:04.160Z,68.13
2023-05-01T06:31:36.680Z,68.76
2023-05-01T06:34:05.657Z,68.91
2023-05-01T06:36:43.126Z,69.01
2023-05-01T06:39:11.468Z,69.51
2023-05-01T06:41:40.804Z,69.73
2023-05-01T06:44:08.928Z,69.79
2023-05-01T06:46:41.787Z,70.16
2023-05-01T06:49:09.903Z,70.49
2023-05-01T06:51:38.178Z,70.54
2023-05-01T06:54:08.916Z,69.60
2023-05-01T06:56:37.075Z,68.74
2023-05-01T06:59:06.023Z,68.40
2023-05-01T07:01:36.456Z,68.36
2023-05-01T07:04:04.930Z,68.32
2023-05-01T07:06:43.050Z,68.48
2023-05-01T07:09:17.168Z,68.56
2023-05-01T07:11:53.171Z,68.78
2023-05-01T07:14:21.476Z,68.51
2023-05-01T07:16:54.371Z,68.42
2023-05-01T07:19:25.309Z,68.35
2023-05-01T07:21:53.440Z,67.92
2023-05-01T07:24:21.458Z,67.23
2023-05-01T07:26:49.454Z,66.70
2023-05-01T07:29:17.470Z,66.61
2023-05-01T07:31:46.580Z,66.47
2023-05-01T07:34:14.759Z,66.50
2023-05-01T07:36:42.871Z,65.90
2023-05-01T07:39:10.917Z,64.88
2023-05-01T07:41:38.946Z,64.22
2023-05-01T07:44:06.941Z,64.38
2023-05-01T07:46:36.353Z,64.42
2023-05-01T07:49:04.443Z,64.02
2023-05-01T07:51:32.966Z,63.63
2023-05-01T07:54:04.879Z,64.10
2023-05-01T07:56:33.495Z,63.26
2023-05-01T07:59:01.539Z,63.40
2023-05-01T08:01:29.974Z,63.22
2023-05-01T08:03:58.202Z,62.38
2023-05-01T08:06:26.834Z,62.53
2023-05-01T08:08:54.889Z,62.48
2023-05-01T08:11:22.868Z,62.56
2023-05-01T08:13:50.981Z,62.41
2023-05-01T08:16:21.879Z,62.20
2023-05-01T08:18:50.609Z,61.48
2023-05-01T08:21:18.597Z,61.43
2023-05-01T08:23:46.689Z,60.97
2023-05-01T08:26:14.642Z,60.65
2023-05-01T08:28:42.835Z,60.85
2023-05-01T08:31:10.909Z,61.00
2023-05-01T08:33:42.112Z,59.97
2023-05-01T08:36:11.358Z,58.90
2023-05-01T08:38:39.598Z,59.41
2023-05-01T08:41:09.177Z,58.09
2023-05-01T08:43:37.711Z,58.22
2023-05-01T08:46:09.801Z,58.34
2023-05-01T08:48:41.754Z,58.30
2023-05-01T08:51:12.454Z,58.73
2023-05-01T08:53:41.772Z,59.58
2023-05-01T08:56:13.049Z,59.19
2023-05-01T08:58:43.010Z,58.64
2023-05-01T09:01:15.771Z,58.44
2023-05-01T09:03:44.617Z,58.72
2023-05-01T09:06:13.700Z,58.20
2023-05-01T09:08:41.868Z,57.99
2023-05-01T09:11:12.219Z,58.46
2023-05-01T09:13:40.497Z,58.70
2023-05-01T09:16:08.803Z,59.00
2023-05-01T09:18:43.614Z,59.15
2023-05-01T09:21:12.465Z,58.42
2023-05-01T09:23:41.102Z,58.51
2023-05-01T09:26:11.524Z,58.49
2023-05-01T09:28:46.807Z,58.31
2023-05-01T09:31:29.806Z,58.81
2023-05-01T09:34:03.525Z,57.94
2023-05-01T09:36:34.600Z,56.79
2023-05-01T09:39:03.921Z,54.95
2023-05-01T09:41:33.188Z,54.42
2023-05-01T09:44:01.930Z,54.34
2023-05-01T09:46:42.151Z,54.58
2023-05-01T09:49:10.356Z,54.48
2023-05-01T09:51:38.721Z,54.31
2023-05-01T09:54:19.162Z,54.46
2023-05-01T09:56:48.932Z,54.12
2023-05-01T09:59:21.160Z,54.16
2023-05-01T10:01:51.875Z,54.22
2023-05-01T10:04:39.288Z,54.94
2023-05-01T10:07:14.830Z,54.70
2023-05-01T10:09:45.511Z,54.01
2023-05-01T10:12:24.440Z,53.32
2023-05-01T10:15:07.773Z,53.20
2023-05-01T10:17:45.621Z,53.45
2023-05-01T10:20:13.781Z,53.43
2023-05-01T10:22:42.023Z,53.79
2023-05-01T10:25:14.099Z,52.74
2023-05-01T10:27:42.225Z,52.89
2023-05-01T10:30:10.699Z,52.82
2023-05-01T10:32:42.244Z,52.62
2023-05-01T10:35:15.221Z,51.72
2023-05-01T10:37:58.674Z,51.56
2023-05-01T10:40:47.052Z,51.59
2023-05-01T10:43:16.153Z,52.43
2023-05-01T10:45:46.262Z,51.80
2023-05-01T10:48:48.043Z,51.25
2023-05-01T10:51:21.628Z,50.62
2023-05-01T10:54:10.675Z,50.56
2023-05-01T10:56:38.779Z,50.26
2023-05-01T10:59:08.503Z,50.57
2023-05-01T11:01:41.207Z,50.77
2023-05-01T11:04:27.604Z,49.70
2023-05-01T11:06:58.540Z,49.41
2023-05-01T11:10:01.895Z,49.98
2023-05-01T11:12:47.563Z,49.76
2023-05-01T11:15:31.288Z,49.30
2023-05-01T11:18:01.769Z,49.47
2023-05-01T11:20:36.792Z,49.14
2023-05-01T11:23:04.850Z,49.01
2023-05-01T11:25:47.355Z,48.79
2023-05-01T11:28:22.978Z,48.82
2023-05-01T11:30:51.019Z,48.70
2023-05-01T11:33:25.912Z,48.92
2023-05-01T11:35:59.400Z,48.50
2023-05-01T11:38:27.711Z,47.27
2023-05-01T11:40:58.942Z,47.72
2023-05-01T11:43:26.921Z,47.84
2023-05-01T11:46:04.132Z,47.51
2023-05-01T11:48:32.612Z,47.82
2023-05-01T11:51:00.838Z,47.30
2023-05-01T11:53:30.096Z,48.07
2023-05-01T11:56:01.034Z,48.10
2023-05-01T11:58:34.166Z,47.38
2023-05-01T12:01:03.300Z,46.81
2023-05-01T12:03:44.654Z,47.10
2023-05-01T12:06:13.847Z,46.74
2023-05-01T12:08:51.342Z,45.87
2023-05-01T12:11:23.521Z,46.50
2023-05-01T12:13:51.642Z,46.96
2023-05-01T12:16:20.025Z,47.04
2023-05-01T12:18:48.577Z,47.59
2023-05-01T12:21:22.877Z,46.91
2023-05-01T12:23:50.967Z,47.60
2023-05-01T12:26:23.830Z,47.42
2023-05-01T12:29:07.026Z,47.54
2023-05-01T12:31:46.420Z,45.77
2023-05-01T12:34:14.569Z,45.53
2023-05-01T12:36:59.254Z,45.38
2023-05-01T12:39:44.790Z,45.22
2023-05-01T12:42:20.649Z,45.34
2023-05-01T12:44:48.698Z,43.97
2023-05-01T12:47:16.939Z,44.75
2023-05-01T12:49:44.988Z,45.31
2023-05-01T12:52:13.003Z,43.47
2023-05-01T12:54:45.504Z,43.31
2023-05-01T12:57:25.452Z,43.69
2023-05-01T13:00:01.305Z,43.05
2023-05-01T13:02:33.601Z,43.03
2023-05-01T13:05:08.687Z,43.07
2023-05-01T13:07:38.419Z,43.19
2023-05-01T13:10:07.102Z,42.57
2023-05-01T13:12:47.334Z,42.16
2023-05-01T13:15:23.243Z,42.22
2023-05-01T13:17:51.757Z,42.40
2023-05-01T13:20:37.457Z,42.97
2023-05-01T13:23:11.388Z,43.38
2023-05-01T13:25:39.516Z,43.70
2023-05-01T13:28:09.249Z,43.51
2023-05-01T13:30:46.345Z,41.32
2023-05-01T13:33:14.873Z,40.48
2023-05-01T13:35:47.526Z,40.00
2023-05-01T13:38:16.418Z,40.31
2023-05-01T13:40:44.445Z,41.26
2023-05-01T13:43:16.349Z,41.90
2023-05-01T13:45:44.313Z,42.42
2023-05-01T13:48:12.580Z,41.83
2023-05-01T13:50:42.418Z,42.05
2023-05-01T13:53:15.453Z,41.82
2023-05-01T13:55:43.439Z,41.62
2023-05-01T13:58:14.464Z,41.15
2023-05-01T14:00:45.033Z,41.17
2023-05-01T14:03:16.115Z,38.46
2023-05-01T14:05:45.146Z,38.44
2023-05-01T14:08:14.754Z,38.97
2023-05-01T14:10:42.793Z,38.98
2023-05-01T14:13:11.071Z,39.43
2023-05-01T14:15:43.943Z,38.83
2023-05-01T14:18:17.761Z,39.31
2023-05-01T14:20:47.645Z,39.62
2023-05-01T14:23:16.944Z,39.44
2023-05-01T14:25:46.758Z,39.75
2023-05-01T14:28:15.524Z,39.54
2023-05-01T14:30:47.717Z,39.12
2023-05-01T14:33:16.248Z,39.02
2023-05-01T14:35:52.724Z,38.95
2023-05-01T14:38:22.689Z,39.29
2023-05-01T14:41:00.949Z,38.52
2023-05-01T14:43:29.237Z,36.74
2023-05-01T14:45:57.337Z,37.04
2023-05-01T14:48:29.282Z,37.64
2023-05-01T14:50:59.462Z,37.28
2023-05-01T14:53:31.722Z,37.59
2023-05-01T14:55:59.861Z,37.64
2023-05-01T14:58:28.058Z,37.97
2023-05-01T15:01:06.120Z,36.92
2023-05-01T15:03:41.141Z,37.18
2023-05-01T15:06:09.744Z,37.82
2023-05-01T15:08:38.352Z,38.47
2023-05-01T15:11:06.435Z,38.75
2023-05-01T15:13:34.495Z,38.69
2023-05-01T15:16:03.354Z,38.45
2023-05-01T15:18:31.498Z,38.70
2023-05-01T15:20:59.613Z,38.43
2023-05-01T15:23:27.773Z,38.44
2023-05-01T15:25:55.678Z,38.69
2023-05-01T15:28:24.940Z,38.77
2023-05-01T15:30:54.395Z,38.60
2023-05-01T15:33:22.916Z,38.36
2023-05-01T15:35:52.736Z,37.99
2023-05-01T15:38:21.796Z,37.85
2023-05-01T15:40:52.437Z,38.04
2023-05-01T15:43:23.395Z,38.45
2023-05-01T15:45:51.574Z,38.37
2023-05-01T15:48:19.732Z,36.16
2023-05-01T15:50:48.992Z,36.41
2023-05-01T15:53:17.663Z,37.01
2023-05-01T15:55:45.586Z,36.07
2023-05-01T15:58:16.852Z,36.21
2023-05-01T16:00:50.070Z,36.86
2023-05-01T16:03:18.704Z,37.00
2023-05-01T16:05:49.442Z,36.75
2023-05-01T16:08:19.756Z,36.71
2023-05-01T16:10:47.870Z,37.34
2023-05-01T16:13:15.952Z,37.19
2023-05-01T16:15:43.984Z,37.22
2023-05-01T16:18:26.808Z,36.64
2023-05-01T16:20:59.571Z,36.77
2023-05-01T16:23:28.162Z,36.85
2023-05-01T16:25:56.354Z,36.99
2023-05-01T16:28:27.316Z,36.99
2023-05-01T16:30:55.531Z,37.23
2023-05-01T16:33:23.767Z,37.33
2023-05-01T16:35:51.808Z,37.33
2023-05-01T16:38:26.437Z,37.64
2023-05-01T16:40:54.550Z,37.84
2023-05-01T16:43:23.225Z,38.17
2023-05-01T16:45:54.223Z,38.54
2023-05-01T16:48:24.255Z,38.80
2023-05-01T16:50:52.296Z,39.06
2023-05-01T16:53:20.945Z,39.40
2023-05-01T16:55:48.964Z,39.54
2023-05-01T16:58:16.957Z,39.66
2023-05-01T17:00:44.902Z,40.17
2023-05-01T17:03:17.398Z,40.49
2023-05-01T17:06:01.873Z,40.93
2023-05-01T17:08:30.393Z,41.31
2023-05-01T17:10:58.537Z,41.69
2023-05-01T17:13:26.594Z,42.01
2023-05-01T17:15:54.703Z,42.31
2023-05-01T17:18:22.721Z,42.73
2023-05-01T17:20:50.599Z,43.04
2023-05-01T17:23:18.578Z,43.52
2023-05-01T17:25:46.605Z,44.13
2023-05-01T17:28:34.893Z,44.51
2023-05-01T17:31:02.890Z,44.87
2023-05-01T17:33:31.297Z,45.59
2023-05-01T17:36:00.719Z,45.85
2023-05-01T17:38:28.777Z,46.28
2023-05-01T17:40:56.628Z,46.88
2023-05-01T17:43:26.695Z,47.08
2023-05-01T17:45:54.711Z,47.64
2023-05-01T17:48:22.968Z,48.03
2023-05-01T17:50:55.962Z,48.31
2023-05-01T17:53:24.298Z,48.64
2023-05-01T17:56:02.074Z,48.94
2023-05-01T17:58:32.365Z,49.36
2023-05-01T18:01:07.971Z,49.58
2023-05-01T18:03:36.992Z,49.91
2023-05-01T18:06:08.311Z,50.46
2023-05-01T18:08:36.424Z,50.90
2023-05-01T18:11:04.388Z,51.10
2023-05-01T18:13:38.366Z,51.25
2023-05-01T18:16:06.372Z,51.63
2023-05-01T18:18:34.289Z,52.12
2023-05-01T18:21:02.350Z,52.50
2023-05-01T18:23:30.235Z,53.06
2023-05-01T18:25:58.632Z,53.31
2023-05-01T18:28:26.978Z,53.48
2023-05-01T18:30:54.853Z,53.61
2023-05-01T18:33:26.006Z,53.54
2023-05-01T18:35:54.045Z,53.78
2023-05-01T18:38:25.905Z,54.28
2023-05-01T18:40:54.991Z,54.36
2023-05-01T18:43:23.108Z,54.07
2023-05-01T18:45:51.034Z,54.33
2023-05-01T18:48:19.667Z,54.50
2023-05-01T18:51:00.862Z,54.98
2023-05-01T18:53:35.075Z,55.46
2023-05-01T18:56:03.260Z,55.54
2023-05-01T18:58:31.199Z,55.76
2023-05-01T19:01:02.782Z,55.98
2023-05-01T19:03:31.202Z,56.02
2023-05-01T19:05:59.668Z,56.58
2023-05-01T19:08:27.816Z,56.62
2023-05-01T19:10:58.666Z,56.72
2023-05-01T19:13:26.681Z,57.19
2023-05-01T19:15:55.055Z,57.87
2023-05-01T19:18:23.122Z,58.63
2023-05-01T19:20:50.979Z,58.49
2023-05-01T19:23:21.788Z,59.03
2023-05-01T19:25:50.685Z,59.89
2023-05-01T19:28:18.651Z,60.10
2023-05-01T19:30:46.595Z,60.33
2023-05-01T19:33:14.622Z,60.50
2023-05-01T19:35:45.531Z,61.19
2023-05-01T19:38:13.509Z,62.19
2023-05-01T19:40:42.495Z,62.16
2023-05-01T19:43:13.476Z,62.69
2023-05-01T19:45:43.955Z,63.68
2023-05-01T19:48:12.296Z,64.26
2023-05-01T19:50:40.392Z,65.33
2023-05-01T19:53:08.312Z,66.30
2023-05-01T19:55:36.341Z,67.00
2023-05-01T19:58:04.816Z,67.16
2023-05-01T20:00:32.779Z,67.37
2023-05-01T20:03:01.221Z,67.75
2023-05-01T20:05:33.691Z,67.67
2023-05-01T20:08:05.160Z,67.66
2023-05-01T20:10:33.581Z,67.56
2023-05-01T20:13:01.729Z,67.45
2023-05-01T20:15:31.554Z,67.27
2023-05-01T20:18:00.566Z,67.14
2023-05-01T20:20:32.063Z,67.24
2023-05-01T20:23:14.644Z,66.80
2023-05-01T20:25:43.080Z,66.39
2023-05-01T20:28:14.962Z,66.58
2023-05-01T20:30:45.087Z,66.53
2023-05-01T20:33:14.051Z,66.40
2023-05-01T20:35:42.312Z,66.44
2023-05-01T20:38:10.856Z,66.39
2023-05-01T20:40:40.884Z,66.58
2023-05-01T20:43:09.305Z,66.71
2023-05-01T20:45:37.624Z,67.59
2023-05-01T20:48:05.972Z,68.25
2023-05-01T20:50:34.712Z,68.68
2023-05-01T20:53:02.739Z,68.92
2023-05-01T20:55:30.773Z,68.74
2023-05-01T20:57:58.707Z,69.14
2023-05-01T21:00:26.879Z,69.94
2023-05-01T21:05:29.838Z,71.85
2023-05-01T21:07:59.185Z,72.22
2023-05-01T21:10:27.191Z,72.64
2023-05-01T21:12:56.439Z,73.17
2023-05-01T21:15:24.868Z,74.27
2023-05-01T21:17:54.407Z,74.53
2023-05-01T21:20:33.852Z,75.85
2023-05-01T21:23:02.612Z,76.63
2023-05-01T21:25:33.034Z,77.75
2023-05-01T21:28:03.677Z,78.20
2023-05-01T21:30:43.896Z,78.62
2023-05-01T21:33:16.369Z,78.81
2023-05-01T21:35:46.885Z,79.17
2023-05-01T21:38:16.550Z,80.05
2023-05-01T21:40:48.761Z,80.06
2023-05-01T21:43:25.866Z,80.29
2023-05-01T21:45:54.402Z,81.25
2023-05-01T21:48:22.864Z,81.91
2023-05-01T21:50:51.517Z,82.43
2023-05-01T21:53:19.917Z,82.46
2023-05-01T21:55:48.498Z,82.80
2023-05-01T21:58:16.530Z,83.07
2023-05-01T22:00:46.316Z,83.16
2023-05-01T22:03:17.765Z,83.97
2023-05-01T22:05:46.318Z,84.68
2023-05-01T22:08:14.409Z,84.54
2023-05-01T22:10:43.173Z,85.62
2023-05-01T22:13:11.744Z,85.75
2023-05-01T22:15:39.959Z,86.22
2023-05-01T22:18:08.437Z,85.94
2023-05-01T22:20:36.742Z,86.23
2023-05-01T22:23:09.738Z,86.44
2023-05-01T22:25:43.459Z,86.41
2023-05-01T22:28:11.883Z,86.16
2023-05-01T22:30:40.125Z,86.41
2023-05-01T22:33:11.816Z,86.61
2023-05-01T22:35:41.421Z,86.56
2023-05-01T22:38:15.275Z,86.62
2023-05-01T22:40:47.176Z,86.76
2023-05-01T22:43:15.865Z,87.54
2023-05-01T22:45:43.980Z,87.51
2023-05-01T22:48:12.533Z,87.98
2023-05-01T22:50:42.844Z,88.51
2023-05-01T22:53:11.212Z,88.61
2023-05-01T22:55:39.406Z,88.81
2023-05-01T22:58:07.425Z,89.16
2023-05-01T23:00:35.406Z,89.51
2023-05-01T23:03:03.990Z,89.84
2023-05-01T23:05:32.230Z,90.10
2023-05-01T23:08:00.302Z,89.58
2023-05-01T23:10:31.185Z,89.57
2023-05-01T23:13:01.524Z,89.09
2023-05-01T23:15:29.534Z,89.34
2023-05-01T23:17:57.684Z,89.45
2023-05-01T23:20:26.099Z,89.14
2023-05-01T23:22:54.278Z,88.75
2023-05-01T23:25:26.255Z,88.59
2023-05-01T23:27:56.486Z,88.41
2023-05-01T23:30:24.550Z,88.61
2023-05-01T23:32:54.687Z,88.61
2023-05-01T23:35:25.387Z,88.03
2023-05-01T23:37:54.085Z,88.19
2023-05-01T23:40:22.806Z,87.90
2023-05-01T23:42:51.033Z,87.99
2023-05-01T23:45:19.227Z,88.32
2023-05-01T23:47:47.329Z,88.50
2023-05-01T23:50:15.435Z,88.56
2023-05-01T23:52:44.353Z,88.52
2023-05-01T23:55:12.707Z,88.18
2023-05-01T23:57:42.083Z,88.80
